sensor_id;sensor_type;location;lat;lon;timestamp;pressure;altitude;pressure_sealevel;temperature;humidity
49813;BME280;35706;52.100;5.056;2023-05-16T00:00:41;101931.47;;;10.75;74.46
49813;BME280;35706;52.100;5.056;2023-05-16T00:01:41;101927.06;;;10.75;74.96
49813;BME280;35706;52.100;5.056;2023-05-16T00:02:42;101932.34;;;10.75;75.07
49813;BME280;35706;52.100;5.056;2023-05-16T00:03:42;101925.00;;;10.92;75.88
49813;BME280;35706;52.100;5.056;2023-05-16T00:04:43;101929.28;;;10.82;74.24
49813;BME280;35706;52.100;5.056;2023-05-16T00:05:43;101928.53;;;10.79;74.33
49813;BME280;35706;52.100;5.056;2023-05-16T00:06:43;101928.53;;;10.79;75.02
49813;BME280;35706;52.100;5.056;2023-05-16T00:07:45;101930.69;;;10.86;74.40
49813;BME280;35706;52.100;5.056;2023-05-16T00:08:46;101928.19;;;10.84;75.60
49813;BME280;35706;52.100;5.056;2023-05-16T00:09:47;101933.38;;;10.73;74.23
49813;BME280;35706;52.100;5.056;2023-05-16T00:10:47;101928.66;;;10.78;74.83
49813;BME280;35706;52.100;5.056;2023-05-16T00:11:47;101928.13;;;10.73;74.24
49813;BME280;35706;52.100;5.056;2023-05-16T00:12:49;101931.66;;;10.61;74.66
49813;BME280;35706;52.100;5.056;2023-05-16T00:13:52;101931.72;;;10.72;74.40
49813;BME280;35706;52.100;5.056;2023-05-16T00:14:53;101925.03;;;10.79;74.69
49813;BME280;35706;52.100;5.056;2023-05-16T00:15:54;101933.38;;;10.73;74.42
49813;BME280;35706;52.100;5.056;2023-05-16T00:16:55;101927.13;;;10.63;74.62
49813;BME280;35706;52.100;5.056;2023-05-16T00:17:58;101927.81;;;10.77;75.62
49813;BME280;35706;52.100;5.056;2023-05-16T00:18:58;101932.16;;;10.66;74.46
49813;BME280;35706;52.100;5.056;2023-05-16T00:20:00;101924.16;;;10.67;74.16
49813;BME280;35706;52.100;5.056;2023-05-16T00:21:01;101928.78;;;10.64;75.02
49813;BME280;35706;52.100;5.056;2023-05-16T00:22:02;101922.59;;;10.65;74.25
49813;BME280;35706;52.100;5.056;2023-05-16T00:23:03;101932.16;;;10.66;75.10
49813;BME280;35706;52.100;5.056;2023-05-16T00:24:03;101934.03;;;10.64;74.90
49813;BME280;35706;52.100;5.056;2023-05-16T00:25:04;101931.59;;;10.73;75.74
49813;BME280;35706;52.100;5.056;2023-05-16T00:26:05;101934.88;;;10.64;74.40
49813;BME280;35706;52.100;5.056;2023-05-16T00:27:05;101932.53;;;10.72;74.59
49813;BME280;35706;52.100;5.056;2023-05-16T00:28:06;101931.91;;;10.82;74.83
49813;BME280;35706;52.100;5.056;2023-05-16T00:29:07;101929.72;;;10.75;73.97
49813;BME280;35706;52.100;5.056;2023-05-16T00:30:11;101931.91;;;10.82;74.06
49813;BME280;35706;52.100;5.056;2023-05-16T00:31:11;101939.25;;;10.52;74.35
49813;BME280;35706;52.100;5.056;2023-05-16T00:32:12;101935.22;;;10.59;74.75
49813;BME280;35706;52.100;5.056;2023-05-16T00:33:12;101937.13;;;10.45;74.77
49813;BME280;35706;52.100;5.056;2023-05-16T00:34:12;101933.13;;;10.52;74.81
49813;BME280;35706;52.100;5.056;2023-05-16T00:35:13;101931.53;;;10.62;74.98
49813;BME280;35706;52.100;5.056;2023-05-16T00:36:13;101925.88;;;10.55;74.70
49813;BME280;35706;52.100;5.056;2023-05-16T00:37:13;101932.72;;;10.45;74.79
49813;BME280;35706;52.100;5.056;2023-05-16T00:38:14;101936.72;;;10.51;75.05
49813;BME280;35706;52.100;5.056;2023-05-16T00:39:14;101931.78;;;10.46;74.94
49813;BME280;35706;52.100;5.056;2023-05-16T00:40:15;101936.63;;;10.39;75.13
49813;BME280;35706;52.100;5.056;2023-05-16T00:41:16;101933.25;;;10.50;75.32
49813;BME280;35706;52.100;5.056;2023-05-16T00:42:18;101935.75;;;10.52;75.48
49813;BME280;35706;52.100;5.056;2023-05-16T00:43:19;101937.78;;;10.48;75.84
49813;BME280;35706;52.100;5.056;2023-05-16T00:44:19;101938.19;;;10.55;75.08
49813;BME280;35706;52.100;5.056;2023-05-16T00:45:20;101933.31;;;10.62;75.95
49813;BME280;35706;52.100;5.056;2023-05-16T00:46:20;101934.03;;;10.64;75.72
49813;BME280;35706;52.100;5.056;2023-05-16T00:47:21;101932.81;;;10.56;75.20
49813;BME280;35706;52.100;5.056;2023-05-16T00:48:21;101941.00;;;10.52;75.30
49813;BME280;35706;52.100;5.056;2023-05-16T00:49:21;101939.78;;;10.45;75.07
49813;BME280;35706;52.100;5.056;2023-05-16T00:50:22;101942.06;;;10.49;75.40
49813;BME280;35706;52.100;5.056;2023-05-16T00:51:22;101935.25;;;10.47;75.35
49813;BME280;35706;52.100;5.056;2023-05-16T00:52:23;101934.81;;;10.53;75.70
49813;BME280;35706;52.100;5.056;2023-05-16T00:53:24;101929.47;;;10.54;74.97
49813;BME280;35706;52.100;5.056;2023-05-16T00:54:25;101940.16;;;10.51;75.58
49813;BME280;35706;52.100;5.056;2023-05-16T00:55:28;101931.69;;;10.48;75.22
49813;BME280;35706;52.100;5.056;2023-05-16T00:56:28;101931.03;;;10.57;75.63
49813;BME280;35706;52.100;5.056;2023-05-16T00:57:29;101926.44;;;10.48;75.30
49813;BME280;35706;52.100;5.056;2023-05-16T00:58:29;101933.25;;;10.50;75.97
49813;BME280;35706;52.100;5.056;2023-05-16T00:59:31;101935.03;;;10.37;75.67
49813;BME280;35706;52.100;5.056;2023-05-16T01:00:32;101936.50;;;10.28;76.20
49813;BME280;35706;52.100;5.056;2023-05-16T01:01:34;101934.84;;;10.27;75.93
49813;BME280;35706;52.100;5.056;2023-05-16T01:02:36;101935.50;;;10.31;75.99
49813;BME280;35706;52.100;5.056;2023-05-16T01:03:37;101943.78;;;10.25;76.25
49813;BME280;35706;52.100;5.056;2023-05-16T01:04:38;101943.97;;;10.22;76.26
49813;BME280;35706;52.100;5.056;2023-05-16T01:05:39;101937.78;;;10.23;77.06
49813;BME280;35706;52.100;5.056;2023-05-16T01:06:40;101937.56;;;10.26;76.62
49813;BME280;35706;52.100;5.056;2023-05-16T01:07:40;101937.97;;;10.19;76.50
49813;BME280;35706;52.100;5.056;2023-05-16T01:08:41;101936.94;;;10.22;76.69
49813;BME280;35706;52.100;5.056;2023-05-16T01:09:41;101929.03;;;10.22;76.45
49813;BME280;35706;52.100;5.056;2023-05-16T01:10:58;101932.09;;;10.29;76.28
49813;BME280;35706;52.100;5.056;2023-05-16T01:13:48;101937.06;;;10.33;76.49
49813;BME280;35706;52.100;5.056;2023-05-16T01:15:28;101931.81;;;10.33;75.66
49813;BME280;35706;52.100;5.056;2023-05-16T01:16:55;101936.44;;;10.30;75.80
49813;BME280;35706;52.100;5.056;2023-05-16T01:18:14;101928.94;;;10.36;75.63
49813;BME280;35706;52.100;5.056;2023-05-16T01:20:48;101936.66;;;10.14;76.11
49813;BME280;35706;52.100;5.056;2023-05-16T01:22:02;101945.66;;;10.23;75.92
49813;BME280;35706;52.100;5.056;2023-05-16T01:24:26;101936.41;;;10.17;76.78
49813;BME280;35706;52.100;5.056;2023-05-16T01:26:48;101937.34;;;10.03;77.14
49813;BME280;35706;52.100;5.056;2023-05-16T01:27:50;101937.25;;;10.05;77.43
49813;BME280;35706;52.100;5.056;2023-05-16T01:28:52;101938.09;;;10.05;77.72
49813;BME280;35706;52.100;5.056;2023-05-16T01:29:55;101938.63;;;9.97;78.15
49813;BME280;35706;52.100;5.056;2023-05-16T01:30:56;101944.31;;;9.91;78.07
49813;BME280;35706;52.100;5.056;2023-05-16T01:31:56;101948.50;;;10.07;78.13
49813;BME280;35706;52.100;5.056;2023-05-16T01:32:57;101949.56;;;10.04;78.05
49813;BME280;35706;52.100;5.056;2023-05-16T01:33:58;101945.88;;;10.07;78.20
49813;BME280;35706;52.100;5.056;2023-05-16T01:34:58;101944.00;;;10.09;78.25
49813;BME280;35706;52.100;5.056;2023-05-16T01:37:22;101945.25;;;10.03;78.50
49813;BME280;35706;52.100;5.056;2023-05-16T01:38:34;101950.72;;;9.87;78.79
49813;BME280;35706;52.100;5.056;2023-05-16T01:39:44;101946.84;;;9.93;78.90
49813;BME280;35706;52.100;5.056;2023-05-16T01:40:53;101948.31;;;9.84;79.03
49813;BME280;35706;52.100;5.056;2023-05-16T01:42:09;101947.75;;;9.79;79.41
49813;BME280;35706;52.100;5.056;2023-05-16T01:43:14;101943.56;;;9.89;79.47
49813;BME280;35706;52.100;5.056;2023-05-16T01:44:36;101945.16;;;9.92;79.10
49813;BME280;35706;52.100;5.056;2023-05-16T01:45:50;101948.41;;;9.95;78.75
49813;BME280;35706;52.100;5.056;2023-05-16T01:46:55;101932.84;;;9.79;79.13
49813;BME280;35706;52.100;5.056;2023-05-16T01:48:04;101943.75;;;9.86;79.43
49813;BME280;35706;52.100;5.056;2023-05-16T01:49:16;101947.78;;;9.92;79.03
49813;BME280;35706;52.100;5.056;2023-05-16T01:50:20;101943.06;;;9.97;78.85
49813;BME280;35706;52.100;5.056;2023-05-16T01:51:28;101947.25;;;9.99;78.51
49813;BME280;35706;52.100;5.056;2023-05-16T01:52:55;101943.75;;;9.86;78.93
49813;BME280;35706;52.100;5.056;2023-05-16T01:53:59;101957.03;;;9.85;79.22
49813;BME280;35706;52.100;5.056;2023-05-16T01:55:09;101944.41;;;9.90;79.08
49813;BME280;35706;52.100;5.056;2023-05-16T01:56:15;101956.19;;;9.97;78.98
49813;BME280;35706;52.100;5.056;2023-05-16T01:57:16;101947.25;;;9.87;79.06
49813;BME280;35706;52.100;5.056;2023-05-16T01:58:19;101956.72;;;9.89;79.34
49813;BME280;35706;52.100;5.056;2023-05-16T01:59:21;101959.09;;;9.79;79.57
49813;BME280;35706;52.100;5.056;2023-05-16T02:00:22;101959.22;;;9.78;79.64
49813;BME280;35706;52.100;5.056;2023-05-16T02:01:23;101963.59;;;9.65;79.94
49813;BME280;35706;52.100;5.056;2023-05-16T02:02:23;101966.75;;;9.57;80.46
49813;BME280;35706;52.100;5.056;2023-05-16T02:03:23;101959.63;;;9.59;80.63
49813;BME280;35706;52.100;5.056;2023-05-16T02:04:24;101960.97;;;9.65;80.68
49813;BME280;35706;52.100;5.056;2023-05-16T02:05:24;101961.41;;;9.71;80.44
49813;BME280;35706;52.100;5.056;2023-05-16T02:06:24;101965.19;;;9.67;80.44
49813;BME280;35706;52.100;5.056;2023-05-16T02:07:25;101968.66;;;9.68;80.53
49813;BME280;35706;52.100;5.056;2023-05-16T02:08:27;101960.22;;;9.63;80.75
49813;BME280;35706;52.100;5.056;2023-05-16T02:09:28;101960.38;;;9.74;80.30
49813;BME280;35706;52.100;5.056;2023-05-16T02:10:28;101968.13;;;9.75;80.13
49813;BME280;35706;52.100;5.056;2023-05-16T02:11:28;101961.94;;;9.64;80.35
49813;BME280;35706;52.100;5.056;2023-05-16T02:12:29;101962.44;;;9.69;80.74
49813;BME280;35706;52.100;5.056;2023-05-16T02:13:29;101962.34;;;9.57;81.17
49813;BME280;35706;52.100;5.056;2023-05-16T02:14:29;101958.84;;;9.44;81.27
49813;BME280;35706;52.100;5.056;2023-05-16T02:15:30;101960.53;;;9.58;81.02
49813;BME280;35706;52.100;5.056;2023-05-16T02:16:30;101966.44;;;9.62;80.77
49813;BME280;35706;52.100;5.056;2023-05-16T02:17:31;101968.31;;;9.60;80.84
49813;BME280;35706;52.100;5.056;2023-05-16T02:18:31;101960.97;;;9.65;81.03
49813;BME280;35706;52.100;5.056;2023-05-16T02:19:32;101963.25;;;9.44;81.50
49813;BME280;35706;52.100;5.056;2023-05-16T02:20:32;101963.69;;;9.50;81.40
49813;BME280;35706;52.100;5.056;2023-05-16T02:21:33;101963.25;;;9.44;81.41
49813;BME280;35706;52.100;5.056;2023-05-16T02:22:33;101971.66;;;9.49;81.46
49813;BME280;35706;52.100;5.056;2023-05-16T02:23:33;101962.22;;;9.46;81.38
49813;BME280;35706;52.100;5.056;2023-05-16T02:24:33;101967.88;;;9.40;81.32
49813;BME280;35706;52.100;5.056;2023-05-16T02:25:34;101972.94;;;9.56;81.08
49813;BME280;35706;52.100;5.056;2023-05-16T02:26:34;101968.84;;;9.65;80.79
49813;BME280;35706;52.100;5.056;2023-05-16T02:27:35;101972.00;;;9.57;80.73
49813;BME280;35706;52.100;5.056;2023-05-16T02:28:35;101970.00;;;9.61;80.42
49813;BME280;35706;52.100;5.056;2023-05-16T02:29:35;101973.06;;;9.67;80.44
49813;BME280;35706;52.100;5.056;2023-05-16T02:30:36;101971.34;;;9.53;80.86
49813;BME280;35706;52.100;5.056;2023-05-16T02:31:36;101974.41;;;9.60;80.58
49813;BME280;35706;52.100;5.056;2023-05-16T02:32:38;101975.97;;;9.50;81.00
49813;BME280;35706;52.100;5.056;2023-05-16T02:33:38;101971.66;;;9.49;80.93
49813;BME280;35706;52.100;5.056;2023-05-16T02:34:39;101973.25;;;9.51;80.84
49813;BME280;35706;52.100;5.056;2023-05-16T02:35:39;101977.00;;;9.47;81.10
49813;BME280;35706;52.100;5.056;2023-05-16T02:36:39;101974.00;;;9.66;80.49
49813;BME280;35706;52.100;5.056;2023-05-16T02:37:40;101973.34;;;9.50;80.35
49813;BME280;35706;52.100;5.056;2023-05-16T02:38:40;101971.72;;;9.34;81.77
49813;BME280;35706;52.100;5.056;2023-05-16T02:39:41;101978.38;;;9.40;81.61
49813;BME280;35706;52.100;5.056;2023-05-16T02:40:41;101970.69;;;9.37;81.57
49813;BME280;35706;52.100;5.056;2023-05-16T02:41:42;101970.22;;;9.57;80.75
49813;BME280;35706;52.100;5.056;2023-05-16T02:42:42;101973.88;;;9.55;80.78
49813;BME280;35706;52.100;5.056;2023-05-16T02:43:42;101972.75;;;9.59;80.81
49813;BME280;35706;52.100;5.056;2023-05-16T02:44:45;101976.28;;;9.58;81.09
49813;BME280;35706;52.100;5.056;2023-05-16T02:45:46;101982.28;;;9.60;80.79
49813;BME280;35706;52.100;5.056;2023-05-16T02:46:46;101971.69;;;9.62;80.61
49813;BME280;35706;52.100;5.056;2023-05-16T02:47:46;101981.03;;;9.53;80.56
49813;BME280;35706;52.100;5.056;2023-05-16T02:48:48;101975.97;;;9.50;81.05
49813;BME280;35706;52.100;5.056;2023-05-16T02:49:48;101979.63;;;9.47;81.31
49813;BME280;35706;52.100;5.056;2023-05-16T02:50:48;101978.50;;;9.64;80.82
49813;BME280;35706;52.100;5.056;2023-05-16T02:51:49;101976.22;;;9.72;80.26
49813;BME280;35706;52.100;5.056;2023-05-16T02:52:49;101985.78;;;9.73;80.04
49813;BME280;35706;52.100;5.056;2023-05-16T02:53:50;101980.63;;;9.72;80.06
49813;BME280;35706;52.100;5.056;2023-05-16T02:54:51;101981.44;;;9.60;80.54
49813;BME280;35706;52.100;5.056;2023-05-16T02:55:51;101975.66;;;9.54;80.35
49813;BME280;35706;52.100;5.056;2023-05-16T02:56:51;101986.47;;;9.50;80.57
49813;BME280;35706;52.100;5.056;2023-05-16T02:57:51;101982.91;;;9.51;80.64
49813;BME280;35706;52.100;5.056;2023-05-16T02:58:53;101986.38;;;9.51;80.48
49813;BME280;35706;52.100;5.056;2023-05-16T02:59:53;101985.59;;;9.36;81.18
49813;BME280;35706;52.100;5.056;2023-05-16T03:00:53;101982.75;;;9.40;80.97
49813;BME280;35706;52.100;5.056;2023-05-16T03:01:54;101983.41;;;9.43;80.82
49813;BME280;35706;52.100;5.056;2023-05-16T03:02:54;101980.28;;;9.51;80.16
49813;BME280;35706;52.100;5.056;2023-05-16T03:03:54;101994.00;;;9.42;80.60
49813;BME280;35706;52.100;5.056;2023-05-16T03:04:55;101985.72;;;9.48;80.28
49813;BME280;35706;52.100;5.056;2023-05-16T03:05:55;101981.09;;;9.38;80.53
49813;BME280;35706;52.100;5.056;2023-05-16T03:06:55;101988.44;;;9.33;80.96
49813;BME280;35706;52.100;5.056;2023-05-16T03:07:56;101989.84;;;9.25;81.29
49813;BME280;35706;52.100;5.056;2023-05-16T03:08:56;101985.91;;;9.32;81.07
49813;BME280;35706;52.100;5.056;2023-05-16T03:09:56;101988.59;;;9.30;80.88
49813;BME280;35706;52.100;5.056;2023-05-16T03:10:56;101991.28;;;9.43;80.56
49813;BME280;35706;52.100;5.056;2023-05-16T03:11:57;101978.38;;;9.40;80.59
49813;BME280;35706;52.100;5.056;2023-05-16T03:12:58;101985.25;;;9.28;80.94
49813;BME280;35706;52.100;5.056;2023-05-16T03:13:59;101986.28;;;9.26;81.30
49813;BME280;35706;52.100;5.056;2023-05-16T03:15:00;101990.06;;;9.22;81.58
49813;BME280;35706;52.100;5.056;2023-05-16T03:16:00;101989.66;;;9.28;81.80
49813;BME280;35706;52.100;5.056;2023-05-16T03:17:01;101990.50;;;9.28;81.17
49813;BME280;35706;52.100;5.056;2023-05-16T03:18:01;101993.84;;;9.30;81.09
49813;BME280;35706;52.100;5.056;2023-05-16T03:19:01;101997.13;;;9.34;81.38
49813;BME280;35706;52.100;5.056;2023-05-16T03:20:02;101997.31;;;9.31;81.07
49813;BME280;35706;52.100;5.056;2023-05-16T03:21:04;101991.72;;;9.23;81.23
49813;BME280;35706;52.100;5.056;2023-05-16T03:22:04;101999.25;;;9.14;81.88
49813;BME280;35706;52.100;5.056;2023-05-16T03:23:05;101998.72;;;9.36;81.44
49813;BME280;35706;52.100;5.056;2023-05-16T03:24:07;102001.13;;;9.40;81.17
49813;BME280;35706;52.100;5.056;2023-05-16T03:25:08;101995.34;;;9.34;81.28
49813;BME280;35706;52.100;5.056;2023-05-16T03:26:08;101996.88;;;9.24;81.44
49813;BME280;35706;52.100;5.056;2023-05-16T03:27:08;101996.03;;;9.24;81.57
49813;BME280;35706;52.100;5.056;2023-05-16T03:28:09;101995.56;;;9.31;81.35
49813;BME280;35706;52.100;5.056;2023-05-16T03:29:09;102003.50;;;9.30;81.36
49813;BME280;35706;52.100;5.056;2023-05-16T03:30:10;101998.84;;;9.21;81.75
49813;BME280;35706;52.100;5.056;2023-05-16T03:31:11;102001.19;;;9.25;81.58
49813;BME280;35706;52.100;5.056;2023-05-16T03:32:11;101994.25;;;9.24;81.18
49813;BME280;35706;52.100;5.056;2023-05-16T03:33:12;101999.94;;;9.31;81.37
49813;BME280;35706;52.100;5.056;2023-05-16T03:34:12;102000.97;;;9.28;81.64
49813;BME280;35706;52.100;5.056;2023-05-16T03:35:12;101999.09;;;9.30;81.18
49813;BME280;35706;52.100;5.056;2023-05-16T03:36:13;101995.94;;;9.25;81.44
49813;BME280;35706;52.100;5.056;2023-05-16T03:37:13;102001.44;;;9.35;81.24
49813;BME280;35706;52.100;5.056;2023-05-16T03:38:15;101995.09;;;9.25;81.51
49813;BME280;35706;52.100;5.056;2023-05-16T03:39:16;102001.72;;;9.30;81.25
49813;BME280;35706;52.100;5.056;2023-05-16T03:40:17;102000.81;;;9.31;81.15
49813;BME280;35706;52.100;5.056;2023-05-16T03:41:17;102003.16;;;9.22;81.41
49813;BME280;35706;52.100;5.056;2023-05-16T03:42:17;101997.47;;;9.15;81.67
49813;BME280;35706;52.100;5.056;2023-05-16T03:43:18;102006.38;;;9.12;82.23
49813;BME280;35706;52.100;5.056;2023-05-16T03:44:18;102003.25;;;9.20;81.71
49813;BME280;35706;52.100;5.056;2023-05-16T03:45:18;101999.44;;;9.11;81.90
49813;BME280;35706;52.100;5.056;2023-05-16T03:46:19;102008.16;;;9.12;81.85
49813;BME280;35706;52.100;5.056;2023-05-16T03:47:19;102005.88;;;9.20;81.98
49813;BME280;35706;52.100;5.056;2023-05-16T03:48:19;102012.91;;;9.20;81.65
49813;BME280;35706;52.100;5.056;2023-05-16T03:49:25;102007.19;;;9.27;81.27
49813;BME280;35706;52.100;5.056;2023-05-16T03:50:26;102010.25;;;9.34;81.39
49813;BME280;35706;52.100;5.056;2023-05-16T03:51:26;102011.38;;;9.30;81.26
49813;BME280;35706;52.100;5.056;2023-05-16T03:52:27;102014.19;;;9.27;81.57
49813;BME280;35706;52.100;5.056;2023-05-16T03:53:27;102011.25;;;9.19;81.68
49813;BME280;35706;52.100;5.056;2023-05-16T03:54:28;102008.63;;;9.19;81.87
49813;BME280;35706;52.100;5.056;2023-05-16T03:55:28;102010.03;;;9.10;82.22
49813;BME280;35706;52.100;5.056;2023-05-16T03:56:30;102016.88;;;9.12;82.06
49813;BME280;35706;52.100;5.056;2023-05-16T03:57:31;102007.00;;;9.16;82.38
49813;BME280;35706;52.100;5.056;2023-05-16T03:58:31;102014.38;;;8.96;82.62
49813;BME280;35706;52.100;5.056;2023-05-16T03:59:32;102020.44;;;9.11;82.21
49813;BME280;35706;52.100;5.056;2023-05-16T04:00:33;102017.81;;;9.38;81.40
49813;BME280;35706;52.100;5.056;2023-05-16T04:01:35;102016.63;;;9.30;81.60
49813;BME280;35706;52.100;5.056;2023-05-16T04:02:35;102016.72;;;9.28;81.72
49813;BME280;35706;52.100;5.056;2023-05-16T04:03:36;102024.84;;;9.38;81.63
49813;BME280;35706;52.100;5.056;2023-05-16T04:04:37;102016.97;;;9.38;81.66
49813;BME280;35706;52.100;5.056;2023-05-16T04:05:37;102018.44;;;9.29;81.78
49813;BME280;35706;52.100;5.056;2023-05-16T04:06:38;102019.84;;;9.21;82.01
49813;BME280;35706;52.100;5.056;2023-05-16T04:07:39;102012.09;;;9.19;81.87
49813;BME280;35706;52.100;5.056;2023-05-16T04:08:39;102021.22;;;9.26;81.56
49813;BME280;35706;52.100;5.056;2023-05-16T04:09:40;102023.19;;;9.23;81.16
49813;BME280;35706;52.100;5.056;2023-05-16T04:10:40;102017.31;;;9.19;81.50
49813;BME280;35706;52.100;5.056;2023-05-16T04:11:40;102019.13;;;9.19;81.85
49813;BME280;35706;52.100;5.056;2023-05-16T04:12:41;102011.38;;;9.30;81.70
49813;BME280;35706;52.100;5.056;2023-05-16T04:13:41;102012.09;;;9.19;81.98
49813;BME280;35706;52.100;5.056;2023-05-16T04:14:41;102014.31;;;9.25;81.96
49813;BME280;35706;52.100;5.056;2023-05-16T04:15:42;102010.03;;;9.10;82.55
49813;BME280;35706;52.100;5.056;2023-05-16T04:16:42;102019.72;;;8.95;83.42
49813;BME280;35706;52.100;5.056;2023-05-16T04:17:42;102017.75;;;8.99;83.82
49813;BME280;35706;52.100;5.056;2023-05-16T04:18:43;102017.75;;;8.99;83.92
49813;BME280;35706;52.100;5.056;2023-05-16T04:19:43;102021.19;;;8.99;84.09
49813;BME280;35706;52.100;5.056;2023-05-16T04:20:44;102018.88;;;8.80;84.74
49813;BME280;35706;52.100;5.056;2023-05-16T04:21:46;102027.22;;;8.87;84.86
49813;BME280;35706;52.100;5.056;2023-05-16T04:22:47;102021.72;;;8.91;84.47
49813;BME280;35706;52.100;5.056;2023-05-16T04:23:47;102024.03;;;8.96;84.26
49813;BME280;35706;52.100;5.056;2023-05-16T04:24:48;102025.75;;;8.83;84.86
49813;BME280;35706;52.100;5.056;2023-05-16T04:25:48;102025.47;;;8.87;84.58
49813;BME280;35706;52.100;5.056;2023-05-16T04:26:49;102022.91;;;8.86;84.52
49813;BME280;35706;52.100;5.056;2023-05-16T04:27:50;102026.09;;;8.91;84.51
49813;BME280;35706;52.100;5.056;2023-05-16T04:28:51;102031.75;;;8.85;84.44
49813;BME280;35706;52.100;5.056;2023-05-16T04:29:52;102032.56;;;8.85;84.58
49813;BME280;35706;52.100;5.056;2023-05-16T04:30:52;102029.94;;;8.85;84.53
49813;BME280;35706;52.100;5.056;2023-05-16T04:31:53;102032.75;;;8.82;84.91
49813;BME280;35706;52.100;5.056;2023-05-16T04:32:53;102031.06;;;8.95;84.54
49813;BME280;35706;52.100;5.056;2023-05-16T04:33:54;102036.16;;;9.11;83.69
49813;BME280;35706;52.100;5.056;2023-05-16T04:34:55;102033.75;;;9.08;83.61
49813;BME280;35706;52.100;5.056;2023-05-16T04:35:55;102036.38;;;9.08;83.75
49813;BME280;35706;52.100;5.056;2023-05-16T04:36:57;102036.56;;;9.05;83.88
49813;BME280;35706;52.100;5.056;2023-05-16T04:37:58;102040.50;;;9.12;83.87
49813;BME280;35706;52.100;5.056;2023-05-16T04:38:58;102036.06;;;9.13;83.84
49813;BME280;35706;52.100;5.056;2023-05-16T04:39:58;102046.59;;;8.99;84.44
49813;BME280;35706;52.100;5.056;2023-05-16T04:40:59;102044.06;;;8.97;84.63
49813;BME280;35706;52.100;5.056;2023-05-16T04:42:01;102047.50;;;9.12;84.26
49813;BME280;35706;52.100;5.056;2023-05-16T04:43:02;102045.66;;;9.00;84.55
49813;BME280;35706;52.100;5.056;2023-05-16T04:44:02;102040.06;;;8.91;84.68
49813;BME280;35706;52.100;5.056;2023-05-16T04:45:03;102044.19;;;8.95;84.74
49813;BME280;35706;52.100;5.056;2023-05-16T04:46:05;102050.94;;;8.85;85.07
49813;BME280;35706;52.100;5.056;2023-05-16T04:47:09;102051.66;;;9.02;84.78
49813;BME280;35706;52.100;5.056;2023-05-16T04:48:09;102047.03;;;9.05;84.55
49813;BME280;35706;52.100;5.056;2023-05-16T04:49:11;102049.75;;;9.04;84.66
49813;BME280;35706;52.100;5.056;2023-05-16T04:50:11;102042.47;;;9.09;84.45
49813;BME280;35706;52.100;5.056;2023-05-16T04:51:12;102045.75;;;9.12;84.35
49813;BME280;35706;52.100;5.056;2023-05-16T04:52:12;102048.91;;;9.17;84.33
49813;BME280;35706;52.100;5.056;2023-05-16T04:53:12;102054.16;;;9.17;84.46
49813;BME280;35706;52.100;5.056;2023-05-16T04:54:14;102053.66;;;9.25;84.22
49813;BME280;35706;52.100;5.056;2023-05-16T04:55:14;102054.50;;;9.26;84.22
49813;BME280;35706;52.100;5.056;2023-05-16T04:56:15;102054.28;;;9.29;84.07
49813;BME280;35706;52.100;5.056;2023-05-16T04:57:15;102057.78;;;9.29;84.04
49813;BME280;35706;52.100;5.056;2023-05-16T04:58:16;102061.81;;;9.21;84.48
49813;BME280;35706;52.100;5.056;2023-05-16T04:59:16;102057.44;;;9.21;84.43
49813;BME280;35706;52.100;5.056;2023-05-16T05:00:16;102059.09;;;9.22;84.53
49813;BME280;35706;52.100;5.056;2023-05-16T05:01:17;102064.78;;;9.29;84.26
49813;BME280;35706;52.100;5.056;2023-05-16T05:02:17;102063.41;;;9.23;84.15
49813;BME280;35706;52.100;5.056;2023-05-16T05:03:18;102052.72;;;9.26;84.37
49813;BME280;35706;52.100;5.056;2023-05-16T05:04:18;102059.44;;;9.30;84.02
49813;BME280;35706;52.100;5.056;2023-05-16T05:05:18;102056.09;;;9.28;84.19
49813;BME280;35706;52.100;5.056;2023-05-16T05:06:19;102061.66;;;9.51;83.59
49813;BME280;35706;52.100;5.056;2023-05-16T05:07:19;102057.75;;;9.56;83.32
49813;BME280;35706;52.100;5.056;2023-05-16T05:08:20;102067.47;;;9.69;82.55
49813;BME280;35706;52.100;5.056;2023-05-16T05:09:21;102057.47;;;9.61;82.47
49813;BME280;35706;52.100;5.056;2023-05-16T05:10:21;102066.09;;;9.63;82.65
49813;BME280;35706;52.100;5.056;2023-05-16T05:11:21;102061.34;;;9.55;82.53
49813;BME280;35706;52.100;5.056;2023-05-16T05:12:22;102054.25;;;9.43;82.76
49813;BME280;35706;52.100;5.056;2023-05-16T05:13:22;102054.00;;;9.61;82.43
49813;BME280;35706;52.100;5.056;2023-05-16T05:14:23;102054.13;;;9.59;82.27
49813;BME280;35706;52.100;5.056;2023-05-16T05:15:23;102056.84;;;9.57;82.44
49813;BME280;35706;52.100;5.056;2023-05-16T05:16:23;102052.53;;;9.69;82.04
49813;BME280;35706;52.100;5.056;2023-05-16T05:17:24;102057.81;;;9.69;81.53
49813;BME280;35706;52.100;5.056;2023-05-16T05:18:24;102058.84;;;9.67;81.62
49813;BME280;35706;52.100;5.056;2023-05-16T05:19:24;102059.72;;;9.67;81.42
49813;BME280;35706;52.100;5.056;2023-05-16T05:20:25;102056.34;;;9.65;81.31
49813;BME280;35706;52.100;5.056;2023-05-16T05:21:26;102055.59;;;9.63;81.14
49813;BME280;35706;52.100;5.056;2023-05-16T05:22:26;102056.97;;;9.69;80.96
49813;BME280;35706;52.100;5.056;2023-05-16T05:23:26;102059.28;;;9.73;80.59
49813;BME280;35706;52.100;5.056;2023-05-16T05:24:27;102060.75;;;9.77;80.59
49813;BME280;35706;52.100;5.056;2023-05-16T05:25:27;102059.84;;;9.78;80.51
49813;BME280;35706;52.100;5.056;2023-05-16T05:26:28;102054.59;;;9.78;80.46
49813;BME280;35706;52.100;5.056;2023-05-16T05:27:28;102055.25;;;9.82;80.44
49813;BME280;35706;52.100;5.056;2023-05-16T05:28:28;102057.00;;;9.82;80.44
49813;BME280;35706;52.100;5.056;2023-05-16T05:29:29;102057.97;;;9.81;80.78
49813;BME280;35706;52.100;5.056;2023-05-16T05:30:29;102063.50;;;9.76;81.12
49813;BME280;35706;52.100;5.056;2023-05-16T05:31:30;102066.03;;;9.77;80.83
49813;BME280;35706;52.100;5.056;2023-05-16T05:32:32;102060.75;;;9.77;80.80